Time;durP1;ratioP1;P1;durP2;ratioP2;P2;SDS_P1;SDS_P2;PMS_P1;PMS_P2;Temp;Humidity;BMP_temperature;BMP_pressure;BME280_temperature;BME280_humidity;BME280_pressure;Samples;Min_cycle;Max_cycle;Signal;HPM_P1;HPM_P2
2022/08/12 00:44:59;;;;;;;;;;;19.40;99.20;;;;;;6208834;22;19919;-85
2022/08/12 00:47:24;;;;;;;;;;;19.20;99.90;;;;;;6180362;22;19915;-84
2022/08/12 00:49:52;;;;;;;;;;;18.80;99.90;;;;;;6210167;22;19919;-85
2022/08/12 00:52:21;;;;;;;;;;;19.10;99.90;;;;;;6205230;22;19923;-84
2022/08/12 00:54:50;;;;;;;;;;;19.10;99.90;;;;;;6185973;22;19961;-84
2022/08/12 00:57:20;;;;;;;;;;;19.20;99.30;;;;;;6232723;22;20335;-85
2022/08/12 00:59:50;;;;;;;;;;;19.10;98.60;;;;;;6184734;22;19947;-84
2022/08/12 01:02:25;;;;;;;;;;;19.80;98.60;;;;;;6206706;22;20405;-85
2022/08/12 01:13:08;;;;;;;;;;;19.00;97.40;;;;;;6231573;22;19930;-85
2022/08/12 01:15:33;;;;;;;;;;;19.20;98.10;;;;;;6210394;22;19930;-85
2022/08/12 01:17:59;;;;;;;;;;;20.20;97.40;;;;;;6208305;22;19919;-85
2022/08/12 01:20:38;;;;;;;;;;;18.90;96.50;;;;;;6181117;22;20229;-85
2022/08/12 01:23:14;;;;;;;;;;;18.70;95.90;;;;;;6182577;22;19926;-85
2022/08/12 01:25:42;;;;;;;;;;;19.30;95.50;;;;;;6210324;22;20710;-85
2022/08/12 01:28:09;;;;;;;;;;;18.80;97.30;;;;;;6205844;22;20324;-84
2022/08/12 01:30:35;;;;;;;;;;;18.80;95.70;;;;;;6208400;22;20247;-85
2022/08/12 01:33:01;;;;;;;;;;;18.70;97.00;;;;;;6188577;22;19926;-85
2022/08/12 01:35:29;;;;;;;;;;;19.00;96.00;;;;;;6185487;22;19922;-85
2022/08/12 01:37:56;;;;;;;;;;;19.10;96.00;;;;;;6206973;22;19919;-85
2022/08/12 01:40:22;;;;;;;;;;;19.00;96.10;;;;;;6204957;22;20280;-85
2022/08/12 01:42:49;;;;;;;;;;;18.70;95.90;;;;;;6185351;22;19927;-85
2022/08/12 01:45:16;;;;;;;;;;;18.60;95.90;;;;;;6181953;22;19958;-85
2022/08/12 01:48:00;;;;;;;;;;;18.60;95.70;;;;;;6183434;22;20977;-85
2022/08/12 01:50:32;;;;;;;;;;;18.60;95.70;;;;;;6204018;22;20209;-84
2022/08/12 01:53:09;;;;;;;;;;;18.50;95.50;;;;;;6202894;22;19925;-84
2022/08/12 01:55:37;;;;;;;;;;;18.50;96.10;;;;;;6207083;22;19919;-84
2022/08/12 01:58:05;;;;;;;;;;;18.60;97.00;;;;;;6178063;22;19919;-84
2022/08/12 02:00:47;;;;;;;;;;;18.40;96.70;;;;;;6204498;22;19926;-85
2022/08/12 02:12:09;;;;;;;;;;;18.60;99.70;;;;;;6210031;22;20000;-85
2022/08/12 02:14:34;;;;;;;;;;;18.20;98.00;;;;;;6233382;22;19923;-85
2022/08/12 02:17:04;;;;;;;;;;;18.20;98.70;;;;;;6208042;22;20712;-84
2022/08/12 02:19:45;;;;;;;;;;;18.20;98.60;;;;;;6209467;22;19919;-85
2022/08/12 02:22:28;;;;;;;;;;;19.10;98.60;;;;;;6201415;22;20233;-85
2022/08/12 02:24:56;;;;;;;;;;;18.20;99.00;;;;;;6185625;22;19989;-85
2022/08/12 02:27:26;;;;;;;;;;;18.10;99.50;;;;;;6203770;22;20819;-85
2022/08/12 02:29:52;;;;;;;;;;;18.10;99.90;;;;;;6181138;22;19947;-85
2022/08/12 02:32:17;;;;;;;;;;;18.10;99.90;;;;;;6203884;22;20411;-85
2022/08/12 02:34:43;;;;;;;;;;;18.10;99.90;;;;;;6209110;22;20284;-86
2022/08/12 02:37:10;;;;;;;;;;;18.00;99.90;;;;;;6184271;22;19942;-85
2022/08/12 02:39:35;;;;;;;;;;;18.10;99.90;;;;;;6184127;22;20294;-85
2022/08/12 02:42:05;;;;;;;;;;;17.40;99.90;;;;;;6179479;22;19919;-85
2022/08/12 02:44:35;;;;;;;;;;;16.90;99.90;;;;;;6183191;22;19990;-85
2022/08/12 02:47:02;;;;;;;;;;;18.10;99.90;;;;;;6208720;22;19919;-85
2022/08/12 02:49:28;;;;;;;;;;;18.00;99.90;;;;;;6208383;22;19923;-85
2022/08/12 02:51:55;;;;;;;;;;;17.10;99.90;;;;;;6183067;22;19969;-85
2022/08/12 02:54:21;;;;;;;;;;;17.90;99.90;;;;;;6180741;22;19923;-85
2022/08/12 02:56:46;;;;;;;;;;;18.10;99.90;;;;;;6182610;22;19919;-85
2022/08/12 02:59:15;;;;;;;;;;;18.70;99.90;;;;;;6180954;22;19926;-85
2022/08/12 03:01:53;;;;;;;;;;;17.80;99.90;;;;;;6182713;22;19914;-85
2022/08/12 03:04:25;;;;;;;;;;;17.80;99.90;;;;;;6181347;22;20419;-85
2022/08/12 03:07:00;;;;;;;;;;;17.80;99.90;;;;;;6182341;22;19920;-85
2022/08/12 03:09:25;;;;;;;;;;;18.00;99.90;;;;;;6207061;22;19926;-85
2022/08/12 03:11:53;;;;;;;;;;;18.20;99.90;;;;;;6208563;22;20151;-84
2022/08/12 03:14:19;;;;;;;;;;;17.90;99.90;;;;;;6182737;22;19922;-85
2022/08/12 03:16:49;;;;;;;;;;;18.00;99.90;;;;;;6183619;22;19919;-85
2022/08/12 03:19:18;;;;;;;;;;;18.60;99.90;;;;;;6183691;22;19991;-85
2022/08/12 03:21:44;;;;;;;;;;;18.10;99.90;;;;;;6185780;22;19926;-85
2022/08/12 03:24:09;;;;;;;;;;;17.80;99.90;;;;;;6207985;22;19923;-85
2022/08/12 03:26:35;;;;;;;;;;;17.70;99.90;;;;;;6185569;22;20084;-85
2022/08/12 03:29:05;;;;;;;;;;;17.90;99.90;;;;;;6183707;22;19922;-85
2022/08/12 03:31:32;;;;;;;;;;;17.90;99.90;;;;;;6186086;22;19922;-85
2022/08/12 03:33:59;;;;;;;;;;;18.00;99.90;;;;;;6185742;22;19923;-85
2022/08/12 03:36:27;;;;;;;;;;;17.70;99.90;;;;;;6232030;22;19923;-85
2022/08/12 03:41:40;;;;;;;;;;;17.80;99.90;;;;;;6237965;22;20356;-85
2022/08/12 04:00:47;;;;;;;;;;;17.80;99.90;;;;;;6211164;22;19934;-85
2022/08/12 04:06:00;;;;;;;;;;;17.60;99.90;;;;;;6214351;22;20394;-85
2022/08/12 04:08:26;;;;;;;;;;;17.30;99.90;;;;;;6208827;22;19915;-84
2022/08/12 04:13:39;;;;;;;;;;;16.70;99.90;;;;;;6211556;22;20005;-85
2022/08/12 04:16:06;;;;;;;;;;;17.20;99.90;;;;;;6258551;22;19915;-84
2022/08/12 04:18:32;;;;;;;;;;;17.50;99.90;;;;;;6210067;22;19919;-85
2022/08/12 04:20:57;;;;;;;;;;;17.30;99.90;;;;;;6234636;22;19922;-85
2022/08/12 04:23:24;;;;;;;;;;;17.20;99.90;;;;;;6181239;22;19983;-85
2022/08/12 04:25:50;;;;;;;;;;;17.20;99.90;;;;;;6209918;22;19923;-85
2022/08/12 04:28:16;;;;;;;;;;;17.40;99.90;;;;;;6181022;22;19964;-85
2022/08/12 04:30:42;;;;;;;;;;;17.80;99.90;;;;;;6184203;22;19915;-84
2022/08/12 04:33:08;;;;;;;;;;;17.50;99.90;;;;;;6206312;22;19993;-85
2022/08/12 04:35:34;;;;;;;;;;;18.00;99.90;;;;;;6183814;22;19982;-85
2022/08/12 04:37:59;;;;;;;;;;;17.40;99.90;;;;;;6184448;22;19966;-85
2022/08/12 04:40:25;;;;;;;;;;;17.10;99.90;;;;;;6203070;22;19947;-85
2022/08/12 04:42:51;;;;;;;;;;;17.30;99.90;;;;;;6211870;22;19919;-85
2022/08/12 04:45:17;;;;;;;;;;;17.30;99.90;;;;;;6204890;22;20331;-85
2022/08/12 04:47:43;;;;;;;;;;;17.30;99.90;;;;;;6209444;22;19923;-85
2022/08/12 04:50:09;;;;;;;;;;;17.00;99.90;;;;;;6205795;22;19990;-85
2022/08/12 04:52:34;;;;;;;;;;;17.00;99.90;;;;;;6208519;22;19923;-85
2022/08/12 04:55:02;;;;;;;;;;;17.20;99.90;;;;;;6185867;22;19989;-85
2022/08/12 04:57:28;;;;;;;;;;;17.20;99.90;;;;;;6232057;22;19965;-85
2022/08/12 04:59:53;;;;;;;;;;;17.00;99.90;;;;;;6206788;22;19919;-85
2022/08/12 05:02:19;;;;;;;;;;;16.90;99.90;;;;;;6230564;22;19994;-85
2022/08/12 05:04:47;;;;;;;;;;;16.90;99.90;;;;;;6208036;22;19938;-85
2022/08/12 05:07:13;;;;;;;;;;;17.20;99.90;;;;;;6180924;22;19926;-85
2022/08/12 05:09:39;;;;;;;;;;;;;;;;;;6181885;22;19919;-85
2022/08/12 05:12:05;;;;;;;;;;;;;;;;;;6203756;22;19919;-85
2022/08/12 05:14:31;;;;;;;;;;;;;;;;;;6206860;22;19919;-85
2022/08/12 05:16:59;;;;;;;;;;;;;;;;;;6208652;22;20033;-85
2022/08/12 05:19:25;;;;;;;;;;;;;;;;;;6202741;22;19919;-85
2022/08/12 05:21:51;;;;;;;;;;;;;;;;;;6230531;22;19927;-85
2022/08/12 05:24:17;;;;;;;;;;;;;;;;;;6202156;22;19919;-85
2022/08/12 05:26:43;;;;;;;;;;;;;;;;;;6231811;22;20020;-85
2022/08/12 05:29:11;;;;;;;;;;;;;;;;;;6206401;22;19919;-85
2022/08/12 05:31:37;;;;;;;;;;;;;;;;;;6233911;22;19926;-85
2022/08/12 05:34:04;;;;;;;;;;;;;;;;;;6206382;22;20011;-85
2022/08/12 05:36:30;;;;;;;;;;;;;;;;;;6208307;22;19923;-85
2022/08/12 05:38:56;;;;;;;;;;;;;;;;;;6206509;22;19994;-85
2022/08/12 05:41:28;;;;;;;;;;;;;;;;;;6230648;22;20351;-85
2022/08/12 05:43:54;;;;;;;;;;;;;;;;;;6209360;22;19919;-85
2022/08/12 05:46:20;;;;;;;;;;;;;;;;;;6230840;22;19919;-85
2022/08/12 05:48:46;;;;;;;;;;;;;;;;;;6206906;22;19919;-85
2022/08/12 05:51:12;;;;;;;;;;;;;;;;;;6206239;22;19947;-85
2022/08/12 05:53:38;;;;;;;;;;;;;;;;;;6234182;22;19970;-85
2022/08/12 05:56:04;;;;;;;;;;;;;;;;;;6207777;22;19958;-85
2022/08/12 05:58:31;;;;;;;;;;;;;;;;;;6209393;22;20403;-85
2022/08/12 06:00:58;;;;;;;;;;;;;;;;;;6207705;22;19919;-85
2022/08/12 06:03:24;;;;;;;;;;;;;;;;;;6231870;22;19977;-85
2022/08/12 06:05:51;;;;;;;;;;;;;;;;;;6207602;22;20002;-85
2022/08/12 06:08:17;;;;;;;;;;;;;;;;;;6207284;22;20335;-85
2022/08/12 06:10:44;;;;;;;;;;;;;;;;;;6207855;22;20236;-84
2022/08/12 06:13:13;;;;;;;;;;;;;;;;;;6232153;22;19927;-85
2022/08/12 06:15:39;;;;;;;;;;;;;;;;;;6235476;22;19919;-85
2022/08/12 06:18:08;;;;;;;;;;;;;;;;;;6204702;22;20028;-85
2022/08/12 06:20:34;;;;;;;;;;;;;;;;;;6233725;22;19922;-84
2022/08/12 06:23:02;;;;;;;;;;;;;;;;;;6210469;22;19923;-85
2022/08/12 06:25:28;;;;;;;;;;;;;;;;;;6209536;22;19942;-85
2022/08/12 06:27:54;;;;;;;;;;;;;;;;;;6262054;22;20332;-85
2022/08/12 06:30:20;;;;;;;;;;;;;;;;;;6206317;22;19930;-85
2022/08/12 06:32:46;;;;;;;;;;;;;;;;;;6208758;22;19923;-84
2022/08/12 06:35:12;;;;;;;;;;;;;;;;;;6206500;22;19966;-85
2022/08/12 06:37:38;;;;;;;;;;;;;;;;;;6208137;22;19919;-85
2022/08/12 06:40:04;;;;;;;;;;;;;;;;;;6205926;22;19920;-85
2022/08/12 06:42:51;;;;;;;;;;;;;;;;;;6233235;22;19924;-85
2022/08/12 06:45:17;;;;;;;;;;;;;;;;;;6206913;22;19919;-85
2022/08/12 06:47:43;;;;;;;;;;;;;;;;;;6210336;22;20319;-85
2022/08/12 06:50:15;;;;;;;;;;;;;;;;;;6206349;22;19929;-85
2022/08/12 06:52:41;;;;;;;;;;;;;;;;;;6234344;22;19989;-85
2022/08/12 06:55:19;;;;;;;;;;;;;;;;;;6232022;22;19923;-85
2022/08/12 06:57:46;;;;;;;;;;;;;;;;;;6209422;22;20311;-85
2022/08/12 07:00:12;;;;;;;;;;;;;;;;;;6205442;22;19923;-85
2022/08/12 07:02:38;;;;;;;;;;;;;;;;;;6231622;22;20393;-84
2022/08/12 07:05:04;;;;;;;;;;;;;;;;;;6204428;22;19919;-85
2022/08/12 07:07:30;;;;;;;;;;;;;;;;;;6205848;22;19922;-85
2022/08/12 07:09:56;;;;;;;;;;;;;;;;;;6206851;22;19920;-85
2022/08/12 07:12:23;;;;;;;;;;;;;;;;;;6230193;22;19927;-85
2022/08/12 07:14:50;;;;;;;;;;;;;;;;;;6205573;22;19934;-85
2022/08/12 07:17:16;;;;;;;;;;;;;;;;;;6205043;22;19958;-84
2022/08/12 07:19:43;;;;;;;;;;;;;;;;;;6207376;22;19947;-85
2022/08/12 07:22:21;;;;;;;;;;;;;;;;;;6263040;22;19919;-85
2022/08/12 07:25:29;;;;;;;;;;;;;;;;;;6210364;22;20299;-85
2022/08/12 07:27:42;;;;;;;;;;;;;;;;;;6236130;22;19926;-85
2022/08/12 07:30:13;;;;;;;;;;;;;;;;;;6260711;22;19919;-85
2022/08/12 07:32:39;;;;;;;;;;;;;;;;;;6212626;22;20037;-85
2022/08/12 07:35:05;;;;;;;;;;;;;;;;;;6208493;22;20265;-85
2022/08/12 07:37:33;;;;;;;;;;;;;;;;;;6236533;22;19919;-85
2022/08/12 07:40:04;;;;;;;;;;;;;;;;;;6262442;22;19919;-85
2022/08/12 07:42:30;;;;;;;;;;;;;;;;;;6210118;22;19923;-84
2022/08/12 07:44:58;;;;;;;;;;;21.80;99.90;;;;;;6210112;22;19923;-85
2022/08/12 07:47:48;;;;;;;;;;;22.30;99.90;;;;;;6219046;22;19972;-85
2022/08/12 07:50:17;;;;;;;;;;;22.40;98.80;;;;;;6208326;22;19926;-85
2022/08/12 07:52:48;;;;;;;;;;;22.50;92.10;;;;;;6236480;22;19958;-85
2022/08/12 07:55:14;;;;;;;;;;;23.20;99.90;;;;;;6208318;22;20229;-85
2022/08/12 07:57:40;;;;;;;;;;;;;;;;;;6211912;22;19931;-85
2022/08/12 08:00:06;;;;;;;;;;;23.20;87.20;;;;;;6200054;22;19927;-85
2022/08/12 08:02:34;;;;;;;;;;;23.40;87.50;;;;;;6182827;22;19959;-85
2022/08/12 08:05:05;;;;;;;;;;;23.60;85.00;;;;;;6204267;22;20018;-85
2022/08/12 08:07:34;;;;;;;;;;;23.90;84.60;;;;;;6183795;22;20241;-85
2022/08/12 08:10:03;;;;;;;;;;;24.10;83.10;;;;;;6185027;22;19955;-85
2022/08/12 08:15:16;;;;;;;;;;;24.40;80.10;;;;;;6232497;22;20390;-85
2022/08/12 08:18:01;;;;;;;;;;;24.70;77.40;;;;;;6235569;22;19954;-85
2022/08/12 08:20:32;;;;;;;;;;;25.00;72.80;;;;;;6210120;22;19923;-85
2022/08/12 08:22:58;;;;;;;;;;;25.20;73.70;;;;;;6261648;22;19919;-85
2022/08/12 08:25:30;;;;;;;;;;;25.30;70.90;;;;;;6177514;22;20005;-85
2022/08/12 08:27:59;;;;;;;;;;;25.50;70.00;;;;;;6187943;22;20248;-85
2022/08/12 08:30:25;;;;;;;;;;;25.60;68.80;;;;;;6209456;22;19951;-85
2022/08/12 08:32:53;;;;;;;;;;;25.80;65.00;;;;;;6190256;22;19923;-85
2022/08/12 08:35:21;;;;;;;;;;;26.00;83.50;;;;;;6208809;22;19951;-85
2022/08/12 08:37:48;;;;;;;;;;;27.20;84.00;;;;;;6186274;22;19969;-84
2022/08/12 08:43:06;;;;;;;;;;;26.50;64.30;;;;;;6232367;22;19962;-85
2022/08/12 08:45:31;;;;;;;;;;;26.50;63.60;;;;;;6212764;22;19961;-85
2022/08/12 08:48:01;;;;;;;;;;;26.90;62.00;;;;;;6239105;22;20004;-85
2022/08/12 08:50:28;;;;;;;;;;;27.00;61.60;;;;;;6188679;22;19957;-85
2022/08/12 08:52:53;;;;;;;;;;;27.40;64.50;;;;;;6188519;22;19954;-85
2022/08/12 08:55:19;;;;;;;;;;;27.40;61.40;;;;;;6186313;22;20332;-85
2022/08/12 08:57:48;;;;;;;;;;;27.50;58.00;;;;;;6214079;22;19936;-85
2022/08/12 09:00:14;;;;;;;;;;;27.60;58.50;;;;;;6185345;22;19919;-85
2022/08/12 09:02:46;;;;;;;;;;;27.70;58.90;;;;;;6217072;22;19919;-85
2022/08/12 09:05:11;;;;;;;;;;;27.50;61.20;;;;;;6187880;22;20451;-85
2022/08/12 09:07:42;;;;;;;;;;;28.40;60.70;;;;;;6215266;22;20037;-85
2022/08/12 09:10:32;;;;;;;;;;;28.60;72.50;;;;;;6187695;22;19988;-85
2022/08/12 09:13:30;;;;;;;;;;;28.30;55.60;;;;;;6214276;22;19962;-85
2022/08/12 09:16:25;;;;;;;;;;;28.40;54.40;;;;;;6193412;22;19965;-85
2022/08/12 09:22:14;;;;;;;;;;;28.90;52.90;;;;;;6146630;23;20357;-85
2022/08/12 09:25:05;;;;;;;;;;;;;;;;;;;;;
2022/08/12 09:27:54;;;;;;;;;;;29.40;51.10;;;;;;6241116;22;19990;-85
2022/08/12 09:31:03;;;;;;;;;;;;;;;;;;;;;
2022/08/12 09:33:34;;;;;;;;;;;29.60;48.90;;;;;;6237098;22;19923;-84
2022/08/12 09:36:27;;;;;;;;;;;;;;;;;;;;;
2022/08/12 09:39:08;;;;;;;;;;;;;;;;;;6218531;22;20003;-85
2022/08/12 09:41:38;;;;;;;;;;;30.20;48.50;;;;;;6212543;22;19919;-85
2022/08/12 09:47:12;;;;;;;;;;;30.60;47.90;;;;;;6213612;22;19946;-85
2022/08/12 09:53:09;;;;;;;;;;;30.70;47.40;;;;;;6219637;22;20005;-85
2022/08/12 09:55:41;;;;;;;;;;;30.90;46.80;;;;;;6184603;22;19927;-85
2022/08/12 09:58:30;;;;;;;;;;;30.90;46.40;;;;;;6212552;22;20346;-85
2022/08/12 10:01:08;;;;;;;;;;;31.00;45.80;;;;;;6192308;22;20075;-85
2022/08/12 10:03:46;;;;;;;;;;;31.20;44.50;;;;;;6215041;22;19923;-84
2022/08/12 10:06:22;;;;;;;;;;;31.40;45.70;;;;;;6188718;22;20360;-84
2022/08/12 10:08:50;;;;;;;;;;;31.60;43.20;;;;;;6215517;22;19990;-85
2022/08/12 10:14:31;;;;;;;;;;;31.90;44.10;;;;;;6214705;22;19927;-85
2022/08/12 10:20:00;;;;;;;;;;;32.00;40.00;;;;;;6219376;22;19919;-85
2022/08/12 10:22:36;;;;;;;;;;;32.20;40.40;;;;;;6185919;22;19927;-85
2022/08/12 10:31:15;;;;;;;;;;;32.50;38.10;;;;;;6275724;22;20243;-85
2022/08/12 10:37:00;;;;;;;;;;;32.60;39.80;;;;;;6250115;22;20301;-85
2022/08/12 10:39:59;;;;;;;;;;;32.70;38.90;;;;;;6236208;22;20522;-85
2022/08/12 10:45:24;;;;;;;;;;;32.90;37.50;;;;;;6214626;22;19919;-85
2022/08/12 10:48:10;;;;;;;;;;;32.90;35.90;;;;;;6192335;22;20382;-85
2022/08/12 10:50:59;;;;;;;;;;;33.00;36.60;;;;;;6190517;22;19919;-85
2022/08/12 10:53:36;;;;;;;;;;;33.10;36.20;;;;;;6211070;22;20002;-85
2022/08/12 10:56:12;;;;;;;;;;;33.20;37.90;;;;;;6211018;22;19919;-84
2022/08/12 10:58:50;;;;;;;;;;;;;;;;;;;;;
2022/08/12 11:01:33;;;;;;;;;;;33.30;37.00;;;;;;6213034;22;20358;-85
2022/08/12 11:04:22;;;;;;;;;;;33.40;35.50;;;;;;6188336;22;19997;-85
2022/08/12 11:06:52;;;;;;;;;;;33.50;35.40;;;;;;6189126;22;19961;-85
2022/08/12 11:09:23;;;;;;;;;;;33.50;38.10;;;;;;6211946;22;19926;-84
2022/08/12 11:11:48;;;;;;;;;;;33.50;37.30;;;;;;6239403;22;19919;-84
2022/08/12 11:14:16;;;;;;;;;;;33.60;35.40;;;;;;6185634;22;19923;-84
2022/08/12 11:16:44;;;;;;;;;;;33.60;32.00;;;;;;6212203;22;20032;-85
2022/08/12 11:19:10;;;;;;;;;;;33.50;33.10;;;;;;6184134;22;19919;-85
2022/08/12 11:21:36;;;;;;;;;;;33.40;33.00;;;;;;6211920;22;20384;-85
2022/08/12 11:24:02;;;;;;;;;;;33.30;33.30;;;;;;6211676;22;19951;-84
2022/08/12 11:26:28;;;;;;;;;;;33.40;38.10;;;;;;6213318;22;19922;-84
2022/08/12 11:28:53;;;;;;;;;;;33.40;34.60;;;;;;6211949;22;19923;-85
2022/08/12 11:31:19;;;;;;;;;;;33.40;36.00;;;;;;6209960;22;20117;-85
2022/08/12 11:33:45;;;;;;;;;;;33.50;35.60;;;;;;6188973;22;19985;-85
2022/08/12 11:36:13;;;;;;;;;;;33.50;33.00;;;;;;6186017;22;19926;-85
2022/08/12 11:38:39;;;;;;;;;;;33.50;33.00;;;;;;6210499;22;20252;-85
2022/08/12 11:41:04;;;;;;;;;;;33.60;35.30;;;;;;6210105;22;19915;-85
2022/08/12 11:43:30;;;;;;;;;;;33.60;34.20;;;;;;6187828;22;19950;-85
2022/08/12 11:45:56;;;;;;;;;;;33.70;34.90;;;;;;6213498;22;19942;-86
2022/08/12 11:48:22;;;;;;;;;;;33.80;35.10;;;;;;6185069;22;20073;-85
2022/08/12 11:50:47;;;;;;;;;;;33.80;34.50;;;;;;6185775;22;20347;-85
2022/08/12 11:53:13;;;;;;;;;;;33.80;32.40;;;;;;6210002;22;20359;-85
2022/08/12 11:55:39;;;;;;;;;;;33.80;33.10;;;;;;6212710;22;19966;-85
2022/08/12 11:58:04;;;;;;;;;;;33.90;34.10;;;;;;6185675;22;19942;-85
2022/08/12 12:00:30;;;;;;;;;;;33.90;32.20;;;;;;6212266;22;19941;-85
2022/08/12 12:02:56;;;;;;;;;;;33.90;33.20;;;;;;6187133;22;20349;-85
2022/08/12 12:05:21;;;;;;;;;;;33.90;33.20;;;;;;6208308;22;20282;-85
2022/08/12 12:07:49;;;;;;;;;;;33.80;33.80;;;;;;6187943;22;20189;-85
2022/08/12 12:10:15;;;;;;;;;;;33.80;35.40;;;;;;6185229;22;19965;-85
2022/08/12 12:12:41;;;;;;;;;;;33.80;33.80;;;;;;6187888;22;19978;-84
2022/08/12 12:15:07;;;;;;;;;;;33.80;34.50;;;;;;6184550;22;19919;-85
2022/08/12 12:17:36;;;;;;;;;;;33.90;34.90;;;;;;6187592;22;19919;-85
2022/08/12 12:20:10;;;;;;;;;;;33.90;33.40;;;;;;6236591;22;19951;-85
2022/08/12 12:22:36;;;;;;;;;;;33.90;33.70;;;;;;6214434;22;20233;-84
2022/08/12 12:25:04;;;;;;;;;;;33.90;32.80;;;;;;6211741;22;19954;-85
2022/08/12 12:27:45;;;;;;;;;;;33.90;33.60;;;;;;6211202;22;19923;-85
2022/08/12 12:30:11;;;;;;;;;;;33.90;33.90;;;;;;6185446;22;20314;-84
2022/08/12 12:32:36;;;;;;;;;;;33.90;34.10;;;;;;6211430;22;19923;-84
2022/08/12 12:35:02;;;;;;;;;;;34.00;33.80;;;;;;6186212;22;20251;-84
2022/08/12 12:37:28;;;;;;;;;;;34.00;33.70;;;;;;6212150;22;19930;-84
2022/08/12 12:39:56;;;;;;;;;;;34.00;33.40;;;;;;6215034;22;19986;-85
2022/08/12 12:42:21;;;;;;;;;;;34.10;34.30;;;;;;6237800;22;20412;-85
2022/08/12 12:44:47;;;;;;;;;;;34.20;31.80;;;;;;6188848;22;19994;-84
2022/08/12 12:47:15;;;;;;;;;;;34.20;32.40;;;;;;6186501;22;20385;-86
2022/08/12 12:49:41;;;;;;;;;;;34.10;32.60;;;;;;6189310;22;19969;-85
2022/08/12 12:52:06;;;;;;;;;;;34.00;32.50;;;;;;6186558;22;19948;-85
2022/08/12 12:54:32;;;;;;;;;;;34.10;35.70;;;;;;6190579;22;19923;-84
2022/08/12 12:56:58;;;;;;;;;;;34.10;34.00;;;;;;6214535;22;19919;-85
2022/08/12 12:59:26;;;;;;;;;;;34.00;32.40;;;;;;6212917;22;19942;-85
2022/08/12 13:01:54;;;;;;;;;;;34.00;32.50;;;;;;6215197;22;19920;-84
2022/08/12 13:04:23;;;;;;;;;;;34.10;34.40;;;;;;6212355;22;20260;-85
2022/08/12 13:06:52;;;;;;;;;;;34.20;33.80;;;;;;6214350;22;19915;-84
2022/08/12 13:09:17;;;;;;;;;;;34.20;33.60;;;;;;6240582;22;19919;-85
2022/08/12 13:11:43;;;;;;;;;;;34.10;32.10;;;;;;6188213;22;19926;-85
2022/08/12 13:14:09;;;;;;;;;;;34.20;33.90;;;;;;6237068;22;19962;-85
2022/08/12 13:16:35;;;;;;;;;;;34.10;32.00;;;;;;6187926;22;19931;-84
2022/08/12 13:19:45;;;;;;;;;;;34.10;32.20;;;;;;6189461;22;19919;-85
2022/08/12 13:24:35;;;;;;;;;;;34.00;32.30;;;;;;6215328;22;20225;-84
2022/08/12 13:27:01;;;;;;;;;;;34.10;33.10;;;;;;6188859;22;19919;-84
2022/08/12 13:29:32;;;;;;;;;;;34.20;34.20;;;;;;6184582;22;19919;-83
2022/08/12 13:32:01;;;;;;;;;;;34.10;31.90;;;;;;6182090;22;19919;-84
2022/08/12 13:34:31;;;;;;;;;;;33.90;33.40;;;;;;6185977;22;20408;-84
2022/08/12 13:36:57;;;;;;;;;;;33.90;33.40;;;;;;6184600;22;20413;-85
2022/08/12 13:39:22;;;;;;;;;;;33.90;32.70;;;;;;6183166;22;19919;-84
2022/08/12 13:41:48;;;;;;;;;;;33.90;33.60;;;;;;6185070;22;19919;-84
2022/08/12 13:44:14;;;;;;;;;;;33.90;33.00;;;;;;6182419;22;19964;-85
2022/08/12 13:46:42;;;;;;;;;;;34.00;32.30;;;;;;6179574;22;20013;-84
2022/08/12 13:49:12;;;;;;;;;;;34.00;33.10;;;;;;6229873;22;20030;-84
2022/08/12 13:51:38;;;;;;;;;;;34.00;33.80;;;;;;6187677;22;19937;-84
2022/08/12 13:54:03;;;;;;;;;;;34.00;32.90;;;;;;6208223;22;19930;-84
2022/08/12 13:56:32;;;;;;;;;;;34.00;33.40;;;;;;6210672;22;19923;-84
2022/08/12 13:59:06;;;;;;;;;;;34.20;33.30;;;;;;6186264;22;19926;-84
2022/08/12 14:01:32;;;;;;;;;;;34.10;32.60;;;;;;6183140;22;19919;-84
2022/08/12 14:03:59;;;;;;;;;;;34.10;33.80;;;;;;6233190;22;19925;-84
2022/08/12 14:06:25;;;;;;;;;;;34.10;33.30;;;;;;6180605;22;19926;-85
2022/08/12 14:08:51;;;;;;;;;;;34.10;34.00;;;;;;6207737;22;19915;-85
2022/08/12 14:11:17;;;;;;;;;;;34.10;33.20;;;;;;6202720;22;20321;-84
2022/08/12 14:13:47;;;;;;;;;;;34.10;33.00;;;;;;6205545;22;19997;-84
2022/08/12 14:16:14;;;;;;;;;;;34.10;34.10;;;;;;6205562;22;19919;-84
2022/08/12 14:18:41;;;;;;;;;;;34.00;32.80;;;;;;6205851;22;21154;-85
2022/08/12 14:21:10;;;;;;;;;;;34.10;33.40;;;;;;6205111;22;19939;-84
2022/08/12 14:23:36;;;;;;;;;;;34.00;32.80;;;;;;6206588;22;19959;-83
2022/08/12 14:26:09;;;;;;;;;;;34.10;32.60;;;;;;6185187;22;19919;-84
2022/08/12 14:28:35;;;;;;;;;;;34.10;32.60;;;;;;6262764;22;20002;-84
2022/08/12 14:31:07;;;;;;;;;;;34.00;32.10;;;;;;6210401;22;19950;-84
2022/08/12 14:33:37;;;;;;;;;;;34.00;33.90;;;;;;6209064;22;20324;-84
2022/08/12 14:36:04;;;;;;;;;;;34.00;33.10;;;;;;6228085;22;19919;-83
2022/08/12 14:38:31;;;;;;;;;;;34.00;33.10;;;;;;6204280;22;19923;-84
2022/08/12 14:40:58;;;;;;;;;;;33.90;33.20;;;;;;6207724;22;20343;-84
2022/08/12 14:43:26;;;;;;;;;;;33.90;33.00;;;;;;6256282;22;19930;-84
2022/08/12 14:45:53;;;;;;;;;;;33.90;33.70;;;;;;6208636;22;19926;-85
2022/08/12 14:48:18;;;;;;;;;;;33.80;33.40;;;;;;6204042;22;20230;-83
2022/08/12 14:50:48;;;;;;;;;;;33.70;32.90;;;;;;6206415;22;19919;-84
2022/08/12 14:53:16;;;;;;;;;;;33.70;33.50;;;;;;6205129;22;19973;-84
2022/08/12 14:55:43;;;;;;;;;;;33.60;33.10;;;;;;6232760;22;19955;-84
2022/08/12 14:58:09;;;;;;;;;;;33.60;33.50;;;;;;6229922;22;19973;-84
2022/08/12 15:03:22;;;;;;;;;;;33.50;33.00;;;;;;6226646;22;20307;-84
2022/08/12 15:05:47;;;;;;;;;;;33.50;33.60;;;;;;6181438;22;19942;-84
2022/08/12 15:08:13;;;;;;;;;;;33.50;33.70;;;;;;6202927;22;20320;-85
2022/08/12 15:10:39;;;;;;;;;;;33.50;34.40;;;;;;6206527;22;20009;-85
2022/08/12 15:13:05;;;;;;;;;;;33.50;33.10;;;;;;6206510;22;19919;-84
2022/08/12 15:15:37;;;;;;;;;;;33.50;33.50;;;;;;6206499;22;20095;-84
2022/08/12 15:18:03;;;;;;;;;;;33.60;33.60;;;;;;6206690;22;20244;-84
2022/08/12 15:20:32;;;;;;;;;;;33.50;33.30;;;;;;6183218;22;20402;-84
2022/08/12 15:22:57;;;;;;;;;;;33.50;34.30;;;;;;6233841;22;19957;-85
2022/08/12 15:25:23;;;;;;;;;;;33.50;33.10;;;;;;6178122;22;19950;-84
2022/08/12 15:27:51;;;;;;;;;;;33.50;33.70;;;;;;6209226;22;19923;-84
2022/08/12 15:30:18;;;;;;;;;;;33.40;33.60;;;;;;6209526;22;20303;-84
2022/08/12 15:32:45;;;;;;;;;;;33.40;33.70;;;;;;6211904;22;19929;-84
2022/08/12 15:35:13;;;;;;;;;;;33.30;33.50;;;;;;6211457;22;19927;-84
2022/08/12 15:37:48;;;;;;;;;;;33.30;33.80;;;;;;6213630;22;19919;-84
2022/08/12 15:40:14;;;;;;;;;;;33.30;33.70;;;;;;6181668;22;19926;-84
2022/08/12 15:42:45;;;;;;;;;;;33.30;33.70;;;;;;6208883;22;20229;-84
2022/08/12 15:45:11;;;;;;;;;;;33.20;34.00;;;;;;6175583;22;19919;-84
2022/08/12 15:47:47;;;;;;;;;;;33.20;34.00;;;;;;6176295;22;19930;-84
2022/08/12 15:50:12;;;;;;;;;;;33.20;33.30;;;;;;6198051;22;20781;-84
2022/08/12 15:52:38;;;;;;;;;;;33.10;33.20;;;;;;6202945;22;19930;-84
2022/08/12 15:55:06;;;;;;;;;;;33.00;34.10;;;;;;6202456;22;19923;-84
2022/08/12 15:57:32;;;;;;;;;;;33.00;34.60;;;;;;6260377;22;19919;-84
2022/08/12 15:59:58;;;;;;;;;;;32.90;34.00;;;;;;6205732;22;19919;-84
2022/08/12 16:02:25;;;;;;;;;;;32.80;34.00;;;;;;6204108;22;19961;-84
2022/08/12 16:04:54;;;;;;;;;;;32.80;34.60;;;;;;6209246;22;19961;-84
2022/08/12 16:07:23;;;;;;;;;;;32.80;33.70;;;;;;6179767;22;19980;-84
2022/08/12 16:09:49;;;;;;;;;;;32.80;34.20;;;;;;6211679;22;20511;-84
2022/08/12 16:12:15;;;;;;;;;;;32.70;33.70;;;;;;6232516;22;19919;-84
2022/08/12 16:14:40;;;;;;;;;;;32.60;33.80;;;;;;6207652;22;20347;-83
2022/08/12 16:17:06;;;;;;;;;;;32.60;33.70;;;;;;6204127;22;20307;-85
2022/08/12 16:19:33;;;;;;;;;;;32.60;33.90;;;;;;6208712;22;19919;-83
2022/08/12 16:21:59;;;;;;;;;;;32.50;34.50;;;;;;6207152;22;19919;-84
2022/08/12 16:24:24;;;;;;;;;;;32.50;33.90;;;;;;6233850;22;19961;-84
2022/08/12 16:26:53;;;;;;;;;;;32.50;35.00;;;;;;6185957;22;19994;-83
2022/08/12 16:29:30;;;;;;;;;;;32.40;34.90;;;;;;6178217;22;19990;-84
2022/08/12 16:31:57;;;;;;;;;;;32.40;34.70;;;;;;6231524;22;19919;-84
2022/08/12 16:34:22;;;;;;;;;;;32.30;34.00;;;;;;6180406;22;19929;-83
2022/08/12 16:36:50;;;;;;;;;;;32.20;34.30;;;;;;6207136;22;20347;-84
2022/08/12 16:39:18;;;;;;;;;;;32.20;35.00;;;;;;6202033;22;19922;-84
2022/08/12 16:41:44;;;;;;;;;;;32.20;35.00;;;;;;6228977;22;19919;-84
2022/08/12 16:44:09;;;;;;;;;;;32.10;34.70;;;;;;6231019;22;20469;-84
2022/08/12 16:46:35;;;;;;;;;;;32.00;34.80;;;;;;6233891;22;19919;-84
2022/08/12 16:49:03;;;;;;;;;;;32.00;35.20;;;;;;6184772;22;19994;-83
2022/08/12 16:51:29;;;;;;;;;;;32.00;35.30;;;;;;6210679;22;19919;-83
2022/08/12 16:53:54;;;;;;;;;;;31.90;35.40;;;;;;6208520;22;20336;-84
2022/08/12 16:56:20;;;;;;;;;;;31.80;35.10;;;;;;6208113;22;19919;-84
2022/08/12 16:58:46;;;;;;;;;;;31.80;35.30;;;;;;6207808;22;19965;-83
2022/08/12 17:01:15;;;;;;;;;;;31.70;35.10;;;;;;6207476;22;20346;-83